Record high temperature 44.9°C Record low temperature -0.3°C Record high gust 85.1 km/h Record high average 77.7 km/h Record daily rain 383.8 mm Record low windchill -4.5°C Record high barometer 1043.6 hPa Record low barometer 978.0 hPa
Daily high pressure 1013.3 mb Daily low pressure 1012.8 mb Daily low windchill 25.3°C Daily high heat index 26.4°C Daily high gust speed 14.8 kmh N Daily high average speed 8.7 kmh ENE
Estación de MeteoMurcia.com -------- Murcia-Puente Tocinos
Ultima grabación a: 02:30 Data: 27 July 2017, time of next update: 02:40
Tiempo actualClear/Night Temperatura actual25.3°C (77.5°F) (Indice de Calor25.3°C ), Temperatura aparente 27.9°C
Temperatura máxima (desde medianoche)26.4°C at: 00:00 Temperatura mínima (desde medianoche)25.3°C at: 02:05
Velocidad media del viento (diez minutos)5.2 kmh (2.8 kts) Dirección del viento (diez minutos)NNE (29°)
Indice de Calor25.3°C ráfagas maxima (última hora)10.4 kmh (5.6 kts) at: 01:27
ráfagas maxima (desde medianoche)14.8 kmh (8.0 kts) at: 00:10 Maximo media de un minuto (desde medianoche)8.7 kmh (4.7 kts) at: 00:00
Lluvia (última hora)0.0 mm Lluvia (desde medianoche)0.0 mm (0.00 in.)---
Lluvia Este mes 7.7 mm (0.30 in.) Lluvia Hasta la fecha este año136.9 mm (5.39 in.)
Lluvia máxima por minuto (última hora)0.0 mm/min Lluvia maxima por hora (últimas 6 horas)0.0 mm/hora
Lluvia de ayer 0.0 mm Punto de rocío 21.4°C (Wet Bulb :22.7°C )
Humedad 79 %, Humidex 34.1°C Barómetro corregido a msl1013.3 mb
cambio de presión+0.1 mb (última hora) Tendencia (últimas 1 hora)ESTACIONARIO
cambio de presión (últimas 12 horas)+1.2 mb cambio de presión (últimas 6 horas)+3.1 mb
Current Temp. Interna 27.8°C
Current Hum. Interna 27%


Última imagen cámara web


Weather report/warning/Metars

Alicante / El Altet, Spain (LEAL) 38-17N 000-33W 31M
Jul 26, 2017 - 08:00 PM EDT / 2017.07.27 0000 UTC
Wind: Calm:0
Visibility: greater than 7 mile(s):0
Temperature: 77 F (25 C)
Dew Point: 71 F (22 C)
Relative Humidity: 83%
Pressure (altimeter): 29.97 in. Hg (1015 hPa)
ob: LEAL 270000Z 00000KT CAVOK 25/22 Q1015 NOSIG
cycle: 0
Murcia / San Javier, Spain (LELC) 37-47N 000-48W 3M
Jul 26, 2017 - 05:00 PM EDT / 2017.07.26 2100 UTC
Wind: from the S (170 degrees) at 5 MPH (4 KT) (direction variable):0
Visibility: greater than 7 mile(s):0
Temperature: 78 F (26 C)
Dew Point: 71 F (22 C)
Relative Humidity: 78%
Pressure (altimeter): 29.97 in. Hg (1015 hPa)
ob: LELC 262100Z 17004KT 130V200 CAVOK 26/22 Q1015 NOSIG
cycle: 21
Murcia / Alcantarilla, Spain (LERI) 37-57N 001-14W 75M
Jul 26, 2017 - 02:00 PM EDT / 2017.07.26 1800 UTC
Wind: from the S (190 degrees) at 9 MPH (8 KT):0
Visibility: greater than 7 mile(s):0
Temperature: 89 F (32 C)
Dew Point: 66 F (19 C)
Relative Humidity: 46%
Pressure (altimeter): 29.88 in. Hg (1012 hPa)
ob: LERI 261800Z 19008KT CAVOK 32/19 Q1012 NOSIG
cycle: 18
Gerona / Costa Brava, Spain (LEGE) 41-54N 002-46E 129M
Jul 26, 2017 - 08:00 PM EDT / 2017.07.27 0000 UTC
Wind: Calm:0
Visibility: greater than 7 mile(s):0
Sky conditions: mostly clear
Temperature: 64 F (18 C)
Dew Point: 62 F (17 C)
Relative Humidity: 93%
Pressure (altimeter): 29.97 in. Hg (1015 hPa)
ob: LEGE 270000Z 00000KT 9999 FEW030 18/17 Q1015
cycle: 0
Madri-Colmenar, Spain (LECV) 40-39N 003-44W
Jul 26, 2017 - 02:00 PM EDT / 2017.07.26 1800 UTC
Wind: from the NE (040 degrees) at 10 MPH (9 KT):0
Visibility: greater than 7 mile(s):0
Temperature: 86 F (30 C)
Dew Point: 42 F (6 C)
Relative Humidity: 22%
Pressure (altimeter): 30.03 in. Hg (1017 hPa)
ob: LECV 261800Z 04009KT CAVOK 30/06 Q1017
cycle: 18
Asturias / Aviles, Spain (LEAS) 43-33N 006-02W 130M
Jul 26, 2017 - 08:00 PM EDT / 2017.07.27 0000 UTC
Wind: Variable at 2 MPH (2 KT):0
Visibility: greater than 7 mile(s):0
Sky conditions: mostly clear
Temperature: 59 F (15 C)
Dew Point: 57 F (14 C)
Relative Humidity: 93%
Pressure (altimeter): 30.03 in. Hg (1017 hPa)
ob: LEAS 270000Z VRB02KT 9999 FEW012 15/14 Q1017 NOSIG
cycle: 0
Almeria / Aeropuerto, Spain (LEAM) 36-51N 002-23W 21M
Jul 26, 2017 - 08:00 PM EDT / 2017.07.27 0000 UTC
Wind: Variable at 1 MPH (1 KT):0
Visibility: greater than 7 mile(s):0
Temperature: 77 F (25 C)
Dew Point: 73 F (23 C)
Relative Humidity: 88%
Pressure (altimeter): 29.97 in. Hg (1015 hPa)
ob: LEAM 270000Z AUTO VRB01KT 9999 NCD 25/23 Q1015
cycle: 0
Pamplona / Noain, Spain (LEPP) 42-46N 001-38W 453M
Jul 26, 2017 - 08:00 PM EDT / 2017.07.27 0000 UTC
Wind: from the SE (140 degrees) at 1 MPH (1 KT):0
Visibility: greater than 7 mile(s):0
Temperature: 60 F (16 C)
Dew Point: 57 F (14 C)
Relative Humidity: 87%
Pressure (altimeter): 30.06 in. Hg (1018 hPa)
ob: LEPP 270000Z AUTO 14001KT 9999 NCD 16/14 Q1018
cycle: 0
Badajoz / Talavera La Real, Spain (LEBZ) 38-53N 006-49W 192M
Jul 26, 2017 - 03:00 PM EDT / 2017.07.26 1900 UTC
Wind: from the WSW (240 degrees) at 3 MPH (3 KT) (direction variable):0
Visibility: greater than 7 mile(s):0
Temperature: 98 F (37 C)
Dew Point: 42 F (6 C)
Relative Humidity: 14%
Pressure (altimeter): 29.88 in. Hg (1012 hPa)
ob: LEBZ 261900Z 24003KT 200V260 CAVOK 37/06 Q1012
cycle: 19
Albacete / Los Llanos, Spain (LEAB) 38-57N 001-51W 704M
Jul 26, 2017 - 08:00 PM EDT / 2017.07.27 0000 UTC
Wind: from the SSE (160 degrees) at 6 MPH (5 KT):0
Visibility: greater than 7 mile(s):0
Temperature: 71 F (22 C)
Dew Point: 64 F (18 C)
Relative Humidity: 78%
Pressure (altimeter): 30.06 in. Hg (1018 hPa)
ob: LEAB 270000Z 16005KT CAVOK 22/18 Q1018 NOSIG
cycle: 0



La informacion se graba a intervalos de 2 minutos, pero hay info grabada cada minuto. Optimizado para 800*600 y Color verdadero. Use el boton de

Use the RECARGA en su navegador para recojer la ulima info.

Clicar aquí para regarga diaria de medias/extremas del mes














Created by "Weather Display" software version 10.37S at this start time/date 11:46:32 20/07/2017

La estación de MeteoMurcia.com, publica sus datos en los siguientes proyectos:

Meteoclimatic www.awekas.at

W3Counter
Web Analytics